Time;durP1;ratioP1;P1;durP2;ratioP2;P2;SDS_P1;SDS_P2;PMS_P1;PMS_P2;Temp;Humidity;BMP_temperature;BMP_pressure;BME280_temperature;BME280_humidity;BME280_pressure;Samples;Min_cycle;Max_cycle;Signal;HPM_P1;HPM_P2
2022/05/02 00:01:52;;;;;;;4.88;4.30;;;10.40;99.90;;;;;;5040798;28;20201;-72
2022/05/02 00:04:19;;;;;;;5.30;4.28;;;10.50;99.90;;;;;;5039158;28;20283;-72
2022/05/02 00:06:46;;;;;;;5.53;4.68;;;10.60;99.90;;;;;;5046199;28;20210;-72
2022/05/02 00:09:14;;;;;;;5.60;5.00;;;10.60;99.90;;;;;;5037417;28;20222;-72
2022/05/02 00:11:41;;;;;;;6.65;5.57;;;10.60;99.90;;;;;;5044119;28;20290;-72
2022/05/02 00:14:08;;;;;;;6.78;4.82;;;10.70;99.90;;;;;;5042734;28;20200;-71
2022/05/02 00:16:36;;;;;;;4.85;4.35;;;10.80;99.90;;;;;;5038953;28;20207;-72
2022/05/02 00:19:03;;;;;;;5.38;4.88;;;10.80;99.90;;;;;;5045539;28;20327;-72
2022/05/02 00:21:30;;;;;;;4.80;4.40;;;10.80;99.90;;;;;;5024887;28;20200;-71
2022/05/02 00:23:57;;;;;;;6.13;4.75;;;10.80;99.90;;;;;;5043485;28;20203;-72
2022/05/02 00:26:25;;;;;;;6.93;4.43;;;10.80;99.90;;;;;;5038838;28;20196;-71
2022/05/02 00:28:52;;;;;;;6.32;4.50;;;10.70;99.90;;;;;;5038090;28;20220;-71
2022/05/02 00:31:20;;;;;;;5.95;4.20;;;10.70;99.90;;;;;;5042412;28;20302;-71
2022/05/02 00:33:47;;;;;;;5.38;4.75;;;10.70;99.90;;;;;;5042645;28;20306;-71
2022/05/02 00:36:15;;;;;;;6.22;4.40;;;10.50;99.90;;;;;;5045903;28;20210;-71
2022/05/02 00:38:42;;;;;;;5.88;4.30;;;10.50;99.90;;;;;;5046683;28;20254;-72
2022/05/02 00:41:09;;;;;;;5.72;5.18;;;10.50;99.90;;;;;;5037307;28;20203;-77
2022/05/02 00:43:40;;;;;;;6.28;4.78;;;10.50;99.90;;;;;;5049359;28;20227;-72
2022/05/02 00:46:17;;;;;;;4.30;3.78;;;10.40;99.90;;;;;;5044284;28;20214;-72
2022/05/02 00:48:44;;;;;;;5.35;3.97;;;10.40;99.90;;;;;;5043327;28;20698;-72
2022/05/02 00:51:11;;;;;;;5.40;4.88;;;10.40;99.90;;;;;;5040974;28;20311;-72
2022/05/02 00:53:38;;;;;;;5.32;4.75;;;10.50;99.90;;;;;;5042653;28;20651;-72
2022/05/02 00:56:06;;;;;;;7.95;4.82;;;10.50;99.90;;;;;;5044226;28;20265;-72
2022/05/02 00:58:34;;;;;;;6.07;4.50;;;10.50;99.90;;;;;;5051907;28;20254;-72
2022/05/02 01:01:03;;;;;;;5.43;4.60;;;10.50;99.90;;;;;;5044078;28;20288;-72
2022/05/02 01:03:30;;;;;;;4.28;3.88;;;10.50;99.90;;;;;;5046357;28;20515;-71
2022/05/02 01:08:43;;;;;;;5.63;4.20;;;10.60;99.90;;;;;;5048311;28;20309;-71
2022/05/02 01:11:10;;;;;;;5.25;4.75;;;10.50;99.90;;;;;;5047968;28;20216;-72
2022/05/02 01:13:39;;;;;;;5.57;4.75;;;10.50;99.90;;;;;;5053637;28;20579;-72
2022/05/02 01:16:13;;;;;;;5.07;4.57;;;10.50;99.90;;;;;;5039747;28;20201;-72
2022/05/02 01:18:41;;;;;;;7.43;4.72;;;10.40;99.90;;;;;;5047464;28;20262;-72
2022/05/02 01:21:11;;;;;;;5.60;4.78;;;10.40;99.90;;;;;;5034817;28;20192;-71
2022/05/02 01:23:38;;;;;;;6.20;5.50;;;10.50;99.90;;;;;;5041971;28;20646;-72
2022/05/02 01:26:05;;;;;;;5.45;4.53;;;10.50;99.90;;;;;;5044740;28;20201;-72
2022/05/02 01:28:32;;;;;;;5.90;4.72;;;10.40;99.90;;;;;;5047968;28;20696;-71
2022/05/02 01:30:59;;;;;;;7.60;6.90;;;10.40;99.90;;;;;;5034163;28;20307;-71
2022/05/02 01:33:25;;;;;;;6.05;4.90;;;10.40;99.90;;;;;;5053721;28;20551;-71
2022/05/02 01:35:53;;;;;;;11.50;5.50;;;10.40;99.90;;;;;;5036907;28;20196;-70
2022/05/02 01:38:21;;;;;;;5.40;4.90;;;10.30;99.90;;;;;;5041731;28;20772;-72
2022/05/02 01:40:48;;;;;;;9.75;5.10;;;10.30;99.90;;;;;;5038320;28;20646;-71
2022/05/02 01:43:15;;;;;;;8.27;5.50;;;10.20;99.90;;;;;;5055031;28;20282;-72
2022/05/02 01:45:42;;;;;;;6.38;5.43;;;10.10;99.90;;;;;;5042814;28;20279;-72
2022/05/02 01:48:10;;;;;;;5.85;4.97;;;10.10;99.90;;;;;;5051057;28;20234;-72
2022/05/02 01:50:37;;;;;;;8.80;5.45;;;10.10;99.90;;;;;;5038725;28;20226;-71
2022/05/02 01:53:04;;;;;;;9.00;6.22;;;10.00;99.90;;;;;;5044264;28;20196;-72
2022/05/02 01:55:32;;;;;;;6.57;5.78;;;10.00;99.90;;;;;;5040760;28;20194;-75
2022/05/02 01:57:59;;;;;;;8.77;6.13;;;10.00;99.90;;;;;;5043808;28;20203;-72
2022/05/02 02:00:26;;;;;;;8.45;5.78;;;10.00;99.90;;;;;;5047424;28;20538;-72
2022/05/02 02:02:53;;;;;;;7.93;6.47;;;10.10;99.90;;;;;;5044637;28;20294;-75
2022/05/02 02:08:05;;;;;;;6.82;6.05;;;10.10;99.90;;;;;;5043177;28;20230;-71
2022/05/02 02:10:33;;;;;;;8.35;6.32;;;10.10;99.90;;;;;;5043250;28;20220;-71
2022/05/02 02:13:00;;;;;;;8.52;6.45;;;10.10;99.90;;;;;;5048319;28;20290;-72
2022/05/02 02:15:27;;;;;;;7.88;5.88;;;10.00;99.90;;;;;;5044252;28;20224;-71
2022/05/02 02:17:55;;;;;;;7.00;6.03;;;10.10;99.90;;;;;;5042315;28;20310;-73
2022/05/02 02:20:22;;;;;;;9.52;5.25;;;10.10;99.90;;;;;;5034797;28;20217;-72
2022/05/02 02:22:49;;;;;;;5.50;5.00;;;10.20;99.90;;;;;;5042982;28;20345;-71
2022/05/02 02:25:16;;;;;;;9.27;6.15;;;10.20;99.90;;;;;;5047960;28;20657;-70
2022/05/02 02:27:45;;;;;;;7.72;5.95;;;10.20;99.90;;;;;;5049856;28;20275;-72
2022/05/02 02:30:14;;;;;;;6.50;5.72;;;10.10;99.90;;;;;;5065521;28;20219;-70
2022/05/02 02:32:42;;;;;;;6.18;5.57;;;10.00;99.90;;;;;;5069030;28;20207;-72
2022/05/02 02:35:09;;;;;;;7.45;6.03;;;10.10;99.90;;;;;;5069974;28;20204;-70
2022/05/02 02:37:36;;;;;;;9.80;6.53;;;10.10;99.90;;;;;;5066367;28;20192;-72
2022/05/02 02:40:11;;;;;;;7.80;6.47;;;10.10;99.90;;;;;;5061316;28;20209;-71
2022/05/02 02:42:38;;;;;;;10.20;5.78;;;10.10;99.90;;;;;;5044093;28;20286;-72
2022/05/02 02:45:07;;;;;;;6.13;5.50;;;10.00;99.90;;;;;;5033599;28;20540;-71
2022/05/02 02:47:34;;;;;;;9.00;6.10;;;10.00;99.90;;;;;;5026824;28;20223;-70
2022/05/02 02:50:01;;;;;;;6.40;5.60;;;10.10;99.90;;;;;;5020255;28;20257;-71
2022/05/02 02:52:28;;;;;;;10.63;6.00;;;10.00;99.90;;;;;;5033133;28;20199;-72
2022/05/02 02:54:55;;;;;;;6.35;5.75;;;10.00;99.90;;;;;;5038264;28;20298;-71
2022/05/02 02:57:22;;;;;;;7.28;6.45;;;9.90;99.90;;;;;;5043421;28;20278;-71
2022/05/02 02:59:49;;;;;;;7.00;6.25;;;9.80;99.90;;;;;;5032725;28;20312;-70
2022/05/02 03:02:18;;;;;;;7.68;6.53;;;9.80;99.90;;;;;;5050948;28;20191;-70
2022/05/02 03:07:31;;;;;;;8.40;7.00;;;9.80;99.90;;;;;;5019531;28;20272;-71
2022/05/02 03:09:58;;;;;;;9.85;6.65;;;9.80;99.90;;;;;;5045118;28;20251;-71
2022/05/02 03:12:26;;;;;;;7.82;6.25;;;9.70;99.90;;;;;;5040795;28;20203;-72
2022/05/02 03:14:53;;;;;;;9.10;6.63;;;9.70;99.90;;;;;;5041659;28;20203;-71
2022/05/02 03:17:21;;;;;;;8.55;6.60;;;9.60;99.90;;;;;;5036298;28;20256;-71
2022/05/02 03:19:48;;;;;;;10.30;8.55;;;9.60;99.90;;;;;;5049065;28;20701;-71
2022/05/02 03:22:16;;;;;;;10.10;6.45;;;9.70;99.90;;;;;;5036402;28;20192;-74
2022/05/02 03:24:42;;;;;;;7.75;6.00;;;9.70;99.90;;;;;;5040392;28;20545;-72
2022/05/02 03:27:09;;;;;;;9.32;7.00;;;9.70;99.90;;;;;;5046539;28;20200;-72
2022/05/02 03:29:37;;;;;;;11.88;7.05;;;9.70;99.90;;;;;;5043245;28;20220;-71
2022/05/02 03:32:05;;;;;;;11.05;7.60;;;9.70;99.90;;;;;;5046136;28;20214;-72
2022/05/02 03:34:34;;;;;;;7.63;5.78;;;9.60;99.90;;;;;;5040066;28;20290;-71
2022/05/02 03:37:01;;;;;;;10.48;7.28;;;9.50;99.90;;;;;;5045637;28;20211;-71
2022/05/02 03:39:28;;;;;;;10.82;6.95;;;9.40;99.90;;;;;;5031735;28;20302;-72
2022/05/02 03:41:55;;;;;;;7.57;6.30;;;9.30;99.90;;;;;;5037270;28;20275;-73
2022/05/02 03:44:22;;;;;;;11.07;6.55;;;9.30;99.90;;;;;;5053049;28;20275;-72
2022/05/02 03:46:49;;;;;;;11.98;8.10;;;9.30;99.90;;;;;;5035674;28;20645;-71
2022/05/02 03:49:16;;;;;;;7.70;6.90;;;9.20;99.90;;;;;;5050557;28;20212;-72
2022/05/02 03:51:44;;;;;;;9.07;7.30;;;9.10;99.90;;;;;;5035218;28;20315;-71
2022/05/02 03:54:11;;;;;;;8.40;7.50;;;9.10;99.90;;;;;;5047920;28;20736;-71
2022/05/02 03:56:38;;;;;;;8.73;6.75;;;9.10;99.90;;;;;;5041910;28;20562;-71
2022/05/02 03:59:05;;;;;;;8.70;6.80;;;9.10;99.90;;;;;;5043537;28;20556;-72
2022/05/02 04:01:36;;;;;;;15.75;8.27;;;9.10;99.90;;;;;;5043810;28;20626;-71
2022/05/02 04:04:03;;;;;;;9.57;7.65;;;9.00;99.90;;;;;;5041449;28;20215;-72
2022/05/02 04:06:30;;;;;;;8.23;7.43;;;9.00;99.90;;;;;;5049438;28;20195;-72
2022/05/02 04:08:58;;;;;;;12.18;6.55;;;8.90;99.90;;;;;;5041282;28;20231;-71
2022/05/02 04:11:26;;;;;;;7.80;6.65;;;8.80;99.90;;;;;;5041469;28;20215;-70
2022/05/02 04:13:53;;;;;;;11.18;7.75;;;8.80;99.90;;;;;;5044581;28;20205;-72
2022/05/02 04:16:20;;;;;;;9.20;7.70;;;8.80;99.90;;;;;;5029197;28;20221;-71
2022/05/02 04:18:48;;;;;;;8.93;6.47;;;8.80;99.90;;;;;;5039029;28;20224;-71
2022/05/02 04:21:15;;;;;;;7.80;7.10;;;8.90;99.90;;;;;;5049832;28;20210;-72
2022/05/02 04:23:42;;;;;;;6.25;5.65;;;8.90;99.90;;;;;;5032735;28;20203;-70
2022/05/02 04:26:10;;;;;;;7.55;6.85;;;9.00;99.90;;;;;;5047453;28;20202;-71
2022/05/02 04:28:37;;;;;;;10.60;7.15;;;9.00;99.90;;;;;;5037679;28;20219;-71
2022/05/02 04:31:05;;;;;;;12.02;7.05;;;9.10;99.90;;;;;;5047687;28;20206;-71
2022/05/02 04:33:32;;;;;;;13.18;6.85;;;9.20;99.90;;;;;;5030934;28;20193;-72
2022/05/02 04:35:59;;;;;;;12.90;8.00;;;9.20;99.90;;;;;;5030482;28;20204;-72
2022/05/02 04:38:28;;;;;;;11.18;7.47;;;9.30;99.90;;;;;;5043410;28;20266;-73
2022/05/02 04:40:56;;;;;;;8.32;6.72;;;9.40;99.90;;;;;;5047464;28;20263;-71
2022/05/02 04:43:24;;;;;;;10.77;8.27;;;9.50;99.90;;;;;;5027577;28;20223;-71
2022/05/02 04:45:51;;;;;;;7.95;7.15;;;9.60;99.90;;;;;;5036053;28;20206;-71
2022/05/02 04:48:18;;;;;;;9.13;7.88;;;9.60;99.90;;;;;;5035925;28;20222;-72
2022/05/02 04:50:45;;;;;;;7.00;6.30;;;9.80;99.90;;;;;;5042389;28;20223;-71
2022/05/02 04:53:12;;;;;;;7.55;6.75;;;10.00;99.90;;;;;;5029968;28;20283;-71
2022/05/02 04:55:39;;;;;;;8.27;6.75;;;10.40;99.90;;;;;;5039841;28;20607;-72
2022/05/02 04:58:06;;;;;;;8.40;7.38;;;11.10;99.90;;;;;;5039752;28;20221;-72
2022/05/02 05:00:34;;;;;;;7.88;7.00;;;11.80;99.90;;;;;;5030577;28;20196;-72
2022/05/02 05:03:04;;;;;;;15.57;7.45;;;12.50;99.90;;;;;;5037798;28;20195;-71
2022/05/02 05:05:31;;;;;;;8.60;6.70;;;13.20;99.90;;;;;;5048498;28;20197;-72
2022/05/02 05:07:58;;;;;;;13.55;6.95;;;14.10;99.90;;;;;;5030619;28;20284;-71
2022/05/02 05:10:24;;;;;;;10.13;7.47;;;14.70;99.90;;;;;;5044647;28;20282;-72
2022/05/02 05:13:07;;;;;;;8.80;7.68;;;15.30;99.50;;;;;;5042894;28;20199;-73
2022/05/02 05:16:24;;;;;;;9.95;7.00;;;15.40;97.40;;;;;;5038357;28;20270;-74
2022/05/02 05:19:35;;;;;;;6.35;5.75;;;15.20;97.40;;;;;;5040857;28;20227;-71
2022/05/02 05:22:11;;;;;;;8.18;6.72;;;15.00;96.90;;;;;;5038940;28;20193;-72
2022/05/02 05:24:59;;;;;;;7.15;6.47;;;14.60;97.90;;;;;;5049031;28;20282;-72
2022/05/02 05:27:58;;;;;;;8.38;5.43;;;14.30;98.70;;;;;;5032324;28;20232;-73
2022/05/02 05:30:28;;;;;;;9.15;7.35;;;13.90;99.90;;;;;;5031895;28;20205;-71
2022/05/02 05:33:12;;;;;;;13.82;8.27;;;13.70;99.90;;;;;;5032890;28;20230;-72
2022/05/02 05:35:51;;;;;;;7.47;6.57;;;13.50;99.90;;;;;;5031559;28;20211;-72
2022/05/02 05:38:23;;;;;;;8.10;6.53;;;13.30;99.90;;;;;;5015311;28;20255;-72
2022/05/02 05:41:04;;;;;;;7.97;6.88;;;13.40;99.90;;;;;;5028178;28;20249;-72
2022/05/02 05:43:50;;;;;;;12.05;7.07;;;13.20;99.90;;;;;;5019040;28;20224;-73
2022/05/02 05:46:44;;;;;;;8.30;7.50;;;13.40;99.90;;;;;;5009704;28;20245;-72
2022/05/02 05:49:19;;;;;;;10.00;6.60;;;13.70;99.90;;;;;;5021674;28;20226;-71
2022/05/02 05:51:49;;;;;;;11.32;6.47;;;14.40;99.90;;;;;;5038205;28;20554;-72
2022/05/02 05:54:40;;;;;;;11.75;7.43;;;15.20;98.70;;;;;;5047269;28;20216;-71
2022/05/02 05:57:22;;;;;;;9.43;7.00;;;15.50;96.20;;;;;;5050276;28;20531;-72
2022/05/02 06:00:01;;;;;;;11.75;6.60;;;15.50;96.00;;;;;;5032175;28;20734;-71
2022/05/02 06:02:39;;;;;;;8.55;7.57;;;15.40;95.80;;;;;;5042190;28;20333;-71
2022/05/02 06:05:09;;;;;;;8.30;7.50;;;15.50;95.50;;;;;;5038754;28;20607;-72
2022/05/02 06:07:38;;;;;;;10.82;7.97;;;15.30;96.00;;;;;;5055542;28;20299;-72
2022/05/02 06:10:07;;;;;;;10.77;8.45;;;15.20;96.20;;;;;;5055819;28;20302;-74
2022/05/02 06:12:36;;;;;;;8.90;8.15;;;14.90;96.40;;;;;;5055540;28;20597;-72
2022/05/02 06:20:39;;;;;;;10.75;8.75;;;14.50;98.80;;;;;;5015665;28;20242;-71
2022/05/02 06:23:09;;;;;;;9.82;8.82;;;14.40;99.10;;;;;;5016011;28;20185;-72
2022/05/02 06:25:38;;;;;;;10.13;9.18;;;14.50;99.00;;;;;;5016494;28;20255;-73
2022/05/02 06:28:06;;;;;;;9.77;7.88;;;14.60;98.60;;;;;;5031458;28;20729;-72
2022/05/02 06:30:37;;;;;;;8.82;7.93;;;14.80;98.30;;;;;;5033280;28;20651;-72
2022/05/02 06:33:12;;;;;;;10.30;8.63;;;15.00;97.00;;;;;;5029351;28;20303;-74
2022/05/02 06:35:52;;;;;;;10.15;8.80;;;15.10;96.20;;;;;;5023884;28;20214;-72
2022/05/02 06:38:25;;;;;;;9.70;7.63;;;15.00;95.80;;;;;;5020155;28;20691;-71
2022/05/02 06:41:02;;;;;;;8.90;7.07;;;14.90;96.10;;;;;;5034746;28;20232;-71
2022/05/02 06:43:39;;;;;;;11.60;7.65;;;14.70;96.50;;;;;;5027187;28;20230;-72
2022/05/02 06:46:16;;;;;;;18.17;9.77;;;14.70;97.40;;;;;;5022391;28;20661;-71
2022/05/02 06:48:49;;;;;;;8.10;7.30;;;14.60;97.60;;;;;;5020145;28;20980;-71
2022/05/02 06:51:23;;;;;;;11.98;8.40;;;14.50;98.20;;;;;;5035033;28;20215;-71
2022/05/02 06:54:21;;;;;;;11.90;8.80;;;14.50;98.40;;;;;;5031546;28;20223;-72
2022/05/02 06:56:54;;;;;;;7.93;7.07;;;14.50;98.10;;;;;;5026762;28;20258;-71
2022/05/02 06:59:38;;;;;;;9.25;8.18;;;14.50;98.20;;;;;;5039191;28;20224;-71
2022/05/02 07:02:19;;;;;;;9.77;8.77;;;14.60;97.80;;;;;;5034255;28;20196;-73
2022/05/02 07:04:51;;;;;;;8.85;7.78;;;14.60;98.00;;;;;;5014840;28;20290;-72
2022/05/02 07:07:53;;;;;;;8.50;7.40;;;14.60;98.10;;;;;;5035839;28;20228;-71
2022/05/02 07:10:23;;;;;;;9.38;7.57;;;14.80;96.70;;;;;;5017359;28;20527;-72
2022/05/02 07:12:59;;;;;;;9.52;8.52;;;14.80;96.50;;;;;;5042683;28;20219;-71
2022/05/02 07:15:36;;;;;;;11.45;8.60;;;14.90;96.90;;;;;;5036271;28;20191;-72
2022/05/02 07:18:09;;;;;;;9.73;8.38;;;15.00;97.00;;;;;;5026358;28;20223;-72
2022/05/02 07:21:00;;;;;;;9.88;8.45;;;15.10;96.70;;;;;;5032055;28;20219;-71
2022/05/02 07:23:50;;;;;;;11.60;9.07;;;15.20;96.50;;;;;;5032820;28;20188;-70
2022/05/02 07:26:20;;;;;;;8.27;7.40;;;15.40;95.70;;;;;;5033688;28;20248;-73
2022/05/02 07:28:52;;;;;;;15.75;9.70;;;15.50;95.40;;;;;;5033134;28;20225;-72
2022/05/02 07:31:20;;;;;;;11.32;8.57;;;15.60;95.20;;;;;;5041555;28;20188;-71
2022/05/02 07:33:50;;;;;;;10.88;8.85;;;15.70;94.60;;;;;;5026755;28;20725;-71
2022/05/02 07:36:18;;;;;;;10.20;9.02;;;15.80;94.90;;;;;;5025408;28;20195;-72
2022/05/02 07:38:50;;;;;;;12.52;9.23;;;15.90;94.50;;;;;;5045672;28;20224;-71
2022/05/02 07:41:25;;;;;;;9.88;8.75;;;16.10;93.50;;;;;;5037968;28;20241;-71
2022/05/02 07:43:57;;;;;;;11.13;8.20;;;16.40;93.10;;;;;;5043441;28;20262;-73
2022/05/02 07:46:28;;;;;;;9.07;8.20;;;16.70;92.30;;;;;;5039813;28;20704;-73
2022/05/02 07:48:58;;;;;;;8.95;8.02;;;16.80;92.10;;;;;;5032046;28;20232;-72
2022/05/02 07:51:27;;;;;;;10.27;8.95;;;17.00;90.80;;;;;;5033095;28;20206;-73
2022/05/02 07:53:57;;;;;;;7.85;6.65;;;17.00;90.80;;;;;;5032664;28;20285;-72
2022/05/02 07:56:26;;;;;;;10.40;8.60;;;17.20;90.70;;;;;;5030651;28;20196;-72
2022/05/02 07:58:54;;;;;;;11.82;8.43;;;17.30;91.30;;;;;;5042242;28;20237;-73
2022/05/02 08:01:22;;;;;;;9.83;7.40;;;17.50;90.70;;;;;;5019758;28;20222;-73
2022/05/02 08:03:49;;;;;;;10.23;7.90;;;17.70;88.70;;;;;;5039932;28;20534;-72
2022/05/02 08:06:33;;;;;;;11.37;8.30;;;17.90;87.40;;;;;;5038027;28;20876;-73
2022/05/02 08:09:08;;;;;;;16.60;12.27;;;18.20;86.10;;;;;;5027002;28;20655;-73
2022/05/02 08:11:43;;;;;;;13.67;10.47;;;18.30;86.50;;;;;;5045606;28;20483;-74
2022/05/02 08:14:17;;;;;;;10.93;8.67;;;18.30;85.60;;;;;;5028763;28;20461;-73
2022/05/02 08:17:00;;;;;;;9.13;8.23;;;18.30;85.20;;;;;;5017858;28;20457;-73
2022/05/02 08:19:37;;;;;;;8.30;7.00;;;18.60;85.70;;;;;;5023488;28;20936;-72
2022/05/02 08:28:02;;;;;;;13.93;7.37;;;19.20;82.60;;;;;;5039744;28;20425;-72
2022/05/02 08:30:34;;;;;;;7.77;5.43;;;19.50;81.40;;;;;;5024259;28;20435;-74
2022/05/02 08:33:04;;;;;;;6.83;5.47;;;19.90;78.10;;;;;;5058760;28;20478;-73
2022/05/02 08:35:58;;;;;;;8.10;6.60;;;19.90;77.10;;;;;;5059792;28;20458;-73
2022/05/02 08:38:41;;;;;;;8.03;5.40;;;20.10;77.60;;;;;;5053717;28;20535;-72
2022/05/02 08:41:47;;;;;;;7.00;5.83;;;20.30;76.80;;;;;;5057088;28;20452;-72
2022/05/02 08:44:53;;;;;;;8.83;7.93;;;20.70;75.20;;;;;;5051267;28;20457;-73
2022/05/02 08:47:53;;;;;;;9.43;6.20;;;20.50;73.90;;;;;;5033042;28;20610;-72
2022/05/02 08:50:29;;;;;;;7.37;5.50;;;20.80;73.90;;;;;;5019309;28;20523;-74
2022/05/02 08:53:20;;;;;;;11.03;5.83;;;21.00;72.90;;;;;;5028330;28;20483;-73
2022/05/02 08:55:59;;;;;;;8.47;5.13;;;21.20;71.20;;;;;;5041292;28;20505;-73
2022/05/02 08:58:54;;;;;;;7.70;4.97;;;21.40;70.60;;;;;;5015939;28;20986;-74
2022/05/02 09:01:43;;;;;;;8.83;5.97;;;21.50;69.40;;;;;;5020621;28;20446;-72
2022/05/02 09:04:50;;;;;;;6.73;5.93;;;21.70;68.80;;;;;;5022942;28;20803;-72
2022/05/02 09:08:00;;;;;;;7.77;6.20;;;21.70;68.40;;;;;;5034111;28;20527;-73
2022/05/02 09:10:44;;;;;;;8.10;7.30;;;21.70;67.90;;;;;;5029378;28;20435;-73
2022/05/02 09:13:47;;;;;;;9.57;7.47;;;22.00;67.80;;;;;;5035495;28;20487;-72
2022/05/02 09:16:41;;;;;;;7.07;5.77;;;21.60;66.50;;;;;;4992806;28;20542;-72
2022/05/02 09:19:45;;;;;;;9.63;7.10;;;21.70;66.50;;;;;;5031791;28;20549;-73
2022/05/02 09:23:01;;;;;;;8.00;5.90;;;22.20;64.70;;;;;;5034696;28;20440;-74
2022/05/02 09:25:57;;;;;;;6.97;5.63;;;22.30;63.50;;;;;;5000139;28;20443;-74
2022/05/02 09:28:30;;;;;;;7.33;6.63;;;22.00;64.50;;;;;;5046039;28;20464;-74
2022/05/02 09:31:19;;;;;;;9.17;6.90;;;21.70;63.20;;;;;;5031686;28;20470;-73
2022/05/02 09:33:56;;;;;;;8.50;6.73;;;22.20;63.60;;;;;;5041433;28;20488;-73
2022/05/02 09:36:30;;;;;;;10.23;7.63;;;22.20;62.90;;;;;;5025907;28;20485;-73
2022/05/02 09:39:14;;;;;;;7.43;6.67;;;22.50;62.60;;;;;;5033377;28;20462;-73
2022/05/02 09:42:09;;;;;;;9.70;6.23;;;22.60;61.90;;;;;;5047054;28;20449;-75
2022/05/02 09:51:42;;;;;;;7.20;6.50;;;24.50;58.90;;;;;;5033264;28;20427;-73
2022/05/02 09:56:37;;;;;;;11.50;6.87;;;25.20;58.20;;;;;;5006315;28;20487;-73
2022/05/02 09:57:15;;;;;;;7.03;5.90;;;25.20;56.90;;;;;;5047019;28;20441;-75
2022/05/02 09:59:47;;;;;;;6.40;5.80;;;26.00;53.90;;;;;;5042024;28;20461;-73
2022/05/02 10:02:21;;;;;;;6.73;6.13;;;25.50;53.00;;;;;;5041610;28;20928;-72
2022/05/02 10:04:52;;;;;;;8.30;7.50;;;26.20;52.60;;;;;;5023281;28;20442;-73
2022/05/02 10:07:24;;;;;;;6.80;6.07;;;26.00;52.50;;;;;;5040019;28;20434;-74
2022/05/02 10:10:08;;;;;;;8.33;6.80;;;26.10;51.60;;;;;;5045764;28;20462;-73
2022/05/02 10:12:51;;;;;;;7.33;6.67;;;25.80;52.50;;;;;;5022798;28;20829;-73
2022/05/02 10:15:41;;;;;;;7.03;6.33;;;25.90;51.30;;;;;;5026396;28;20442;-73
2022/05/02 10:18:40;;;;;;;9.07;7.77;;;26.20;50.60;;;;;;5030097;28;20494;-73
2022/05/02 10:21:14;;;;;;;7.20;5.60;;;26.00;51.30;;;;;;5028330;28;20574;-73
2022/05/02 10:23:50;;;;;;;9.30;6.90;;;26.00;50.70;;;;;;5019793;28;20443;-72
2022/05/02 10:26:32;;;;;;;8.30;5.70;;;25.60;51.40;;;;;;5025081;28;20436;-72
2022/05/02 10:29:26;;;;;;;10.77;6.60;;;25.30;51.50;;;;;;5023748;28;20456;-73
2022/05/02 10:32:04;;;;;;;7.33;5.50;;;25.00;52.90;;;;;;5033116;28;20529;-73
2022/05/02 10:34:33;;;;;;;7.07;6.37;;;24.80;53.00;;;;;;5028701;28;20426;-73
2022/05/02 10:37:04;;;;;;;9.83;7.43;;;24.60;53.40;;;;;;5035029;28;20467;-73
2022/05/02 10:39:40;;;;;;;9.17;7.23;;;24.00;53.00;;;;;;5022764;28;20468;-73
2022/05/02 10:42:10;;;;;;;7.60;6.80;;;23.60;54.00;;;;;;5021063;28;20440;-72
2022/05/02 10:44:49;;;;;;;6.97;6.27;;;23.00;54.00;;;;;;5038763;28;20887;-73
2022/05/02 10:47:20;;;;;;;8.70;7.30;;;22.50;54.80;;;;;;5028644;28;20453;-73
2022/05/02 10:50:03;;;;;;;9.63;7.77;;;21.90;55.00;;;;;;5028916;28;20471;-73
2022/05/02 10:52:46;;;;;;;8.13;7.33;;;21.30;56.30;;;;;;5033090;28;20475;-72
2022/05/02 10:55:21;;;;;;;10.90;8.17;;;20.90;57.50;;;;;;5028426;28;20433;-73
2022/05/02 10:57:53;;;;;;;9.70;7.57;;;20.60;57.70;;;;;;5018109;28;20496;-73
2022/05/02 11:00:21;;;;;;;9.87;7.47;;;20.40;57.90;;;;;;5034366;28;20909;-72
2022/05/02 11:03:26;;;;;;;8.97;7.23;;;20.50;58.70;;;;;;5023404;28;20844;-73
2022/05/02 11:06:04;;;;;;;8.13;6.47;;;20.90;58.30;;;;;;5039031;28;20783;-73
2022/05/02 11:08:37;;;;;;;12.53;8.07;;;20.90;58.50;;;;;;5027387;28;20816;-74
2022/05/02 11:11:06;;;;;;;8.80;7.87;;;21.10;58.90;;;;;;5012637;28;20440;-73
2022/05/02 11:13:42;;;;;;;9.33;7.47;;;20.90;58.10;;;;;;5042501;28;20664;-73
2022/05/02 11:16:20;;;;;;;8.97;6.90;;;20.90;58.10;;;;;;5043235;28;20519;-73
2022/05/02 11:22:10;;;;;;;7.90;6.30;;;21.00;59.40;;;;;;5011669;28;20437;-73
2022/05/02 11:24:39;;;;;;;10.23;6.67;;;21.20;58.00;;;;;;5025553;28;20470;-74
2022/05/02 11:27:31;;;;;;;9.17;7.20;;;21.20;57.90;;;;;;5032660;28;20533;-73
2022/05/02 11:30:08;;;;;;;10.30;7.30;;;21.10;58.20;;;;;;5022241;28;20538;-72
2022/05/02 11:32:48;;;;;;;8.40;7.00;;;20.90;59.10;;;;;;5022531;28;20473;-72
2022/05/02 11:35:23;;;;;;;9.63;7.50;;;20.90;59.40;;;;;;5028802;28;20488;-73
2022/05/02 11:37:55;;;;;;;11.00;7.27;;;21.10;59.20;;;;;;5041933;28;20441;-73
2022/05/02 11:40:28;;;;;;;9.03;7.50;;;21.00;58.20;;;;;;5056380;28;20459;-73
2022/05/02 11:42:55;;;;;;;8.20;7.03;;;20.90;59.20;;;;;;5041173;28;20416;-74
2022/05/02 11:45:39;;;;;;;8.20;6.93;;;20.80;59.00;;;;;;5071054;28;20435;-72
2022/05/02 11:48:53;;;;;;;7.00;6.30;;;20.80;59.40;;;;;;5046827;28;20500;-73
2022/05/02 11:51:51;;;;;;;7.53;6.83;;;20.60;59.20;;;;;;5063046;28;20503;-73
2022/05/02 11:54:52;;;;;;;8.37;6.90;;;20.40;59.30;;;;;;5054501;28;20486;-73
2022/05/02 11:57:22;;;;;;;8.97;6.83;;;20.00;60.80;;;;;;5047049;28;20844;-73
2022/05/02 12:00:05;;;;;;;10.57;7.87;;;20.10;60.60;;;;;;5055917;28;20797;-73
2022/05/02 12:02:51;;;;;;;9.43;7.33;;;19.70;59.30;;;;;;5025890;28;20924;-73
2022/05/02 12:05:24;;;;;;;10.97;5.70;;;19.90;61.10;;;;;;5035118;28;20476;-72
2022/05/02 12:07:53;;;;;;;12.13;6.60;;;19.70;60.70;;;;;;5021696;28;20440;-72
2022/05/02 12:10:22;;;;;;;7.70;6.90;;;19.90;61.30;;;;;;5037512;28;20442;-74
2022/05/02 12:12:50;;;;;;;13.47;7.80;;;20.00;60.50;;;;;;5043971;28;20552;-72
2022/05/02 12:15:18;;;;;;;9.60;7.07;;;19.90;60.20;;;;;;5042821;28;20497;-72
2022/05/02 12:17:59;;;;;;;10.87;7.50;;;19.80;61.40;;;;;;5034884;28;20451;-72
2022/05/02 12:20:28;;;;;;;7.80;6.83;;;19.50;61.30;;;;;;5025651;28;20539;-73
2022/05/02 12:22:59;;;;;;;12.73;8.07;;;19.60;61.90;;;;;;5038041;28;20437;-73
2022/05/02 12:25:28;;;;;;;8.40;7.60;;;19.50;62.00;;;;;;5039786;28;20517;-74
2022/05/02 12:27:56;;;;;;;8.63;7.73;;;19.30;61.50;;;;;;5030811;28;20531;-74
2022/05/02 12:30:28;;;;;;;8.70;6.97;;;19.00;62.30;;;;;;5025146;28;20446;-73
2022/05/02 12:33:01;;;;;;;9.80;7.17;;;18.90;63.80;;;;;;5029694;28;20561;-74
2022/05/02 12:35:36;;;;;;;8.90;7.40;;;19.20;63.50;;;;;;5031535;28;20792;-72
2022/05/02 12:38:16;;;;;;;7.83;6.70;;;19.40;63.00;;;;;;5035932;28;20626;-72
2022/05/02 12:40:52;;;;;;;13.87;7.80;;;19.50;63.80;;;;;;5031458;28;20522;-73
2022/05/02 12:43:29;;;;;;;10.07;7.53;;;19.50;62.90;;;;;;5030405;28;20443;-72
2022/05/02 12:45:56;;;;;;;8.83;6.83;;;19.40;63.30;;;;;;5007909;28;20453;-72
2022/05/02 12:48:30;;;;;;;8.47;7.30;;;19.60;63.70;;;;;;5041987;28;20550;-72
2022/05/02 12:50:59;;;;;;;9.60;7.40;;;19.70;63.30;;;;;;5047395;28;20966;-73
2022/05/02 12:56:13;;;;;;;9.53;7.00;;;20.10;62.90;;;;;;5045207;28;20773;-72
2022/05/02 13:01:30;;;;;;;9.53;6.83;;;20.30;62.40;;;;;;5040302;28;20420;-71
2022/05/02 13:04:00;;;;;;;8.57;7.27;;;20.30;61.30;;;;;;5050477;28;20572;-71
2022/05/02 13:06:28;;;;;;;11.80;7.77;;;20.00;61.90;;;;;;5053354;28;20517;-71
2022/05/02 13:09:09;;;;;;;11.00;7.90;;;19.70;63.00;;;;;;5037824;28;20943;-72
2022/05/02 13:11:41;;;;;;;15.33;8.37;;;19.40;63.50;;;;;;5039523;28;20473;-71
2022/05/02 13:14:09;;;;;;;11.40;8.40;;;19.20;63.70;;;;;;5047364;28;20504;-72
2022/05/02 13:16:44;;;;;;;7.63;6.73;;;19.20;64.30;;;;;;5042578;28;20450;-73
2022/05/02 13:19:13;;;;;;;10.07;6.87;;;19.30;64.00;;;;;;5026531;28;20494;-72
2022/05/02 13:21:40;;;;;;;10.37;7.17;;;19.30;64.40;;;;;;5038498;28;20439;-73
2022/05/02 13:24:11;;;;;;;8.70;7.57;;;19.20;63.80;;;;;;5040796;28;20431;-75
2022/05/02 13:27:14;;;;;;;7.93;5.57;;;19.20;64.40;;;;;;5040601;28;20450;-71
2022/05/02 13:29:51;;;;;;;8.87;7.30;;;19.30;65.60;;;;;;5019543;28;20496;-72
2022/05/02 13:32:25;;;;;;;7.83;7.00;;;19.50;64.50;;;;;;5031216;28;20500;-71
2022/05/02 13:35:06;;;;;;;12.43;8.23;;;19.60;64.20;;;;;;5021422;28;20477;-72
2022/05/02 13:37:51;;;;;;;8.87;7.23;;;19.50;64.20;;;;;;5021269;28;20442;-73
2022/05/02 13:40:20;;;;;;;10.17;6.67;;;19.60;64.40;;;;;;5030152;28;20537;-72
2022/05/02 13:42:57;;;;;;;8.97;6.77;;;19.60;64.60;;;;;;5048561;28;20444;-71
2022/05/02 13:45:41;;;;;;;6.33;5.70;;;19.70;64.70;;;;;;5036130;28;20446;-73
2022/05/02 13:48:21;;;;;;;9.00;7.20;;;19.80;65.60;;;;;;5018053;28;20478;-72
2022/05/02 13:50:55;;;;;;;8.33;6.80;;;19.90;64.80;;;;;;5040608;28;20515;-72
2022/05/02 13:53:33;;;;;;;8.80;6.97;;;19.80;64.60;;;;;;5020069;28;20469;-72
2022/05/02 13:56:07;;;;;;;10.53;7.20;;;19.90;65.30;;;;;;5016473;28;20476;-72
2022/05/02 13:58:56;;;;;;;9.10;7.70;;;19.90;64.40;;;;;;5025245;28;20513;-72